Cosgrave, Nevada
Current Conditions -  °F | °C
As of 8:56 PM on Friday 21 Nov 2014 (Local Time) from KWMC Reporting Station
Overcast Overcast  
Wind Chill: 34°   Ceiling: 6000
Heat Index: 42°   Visibility: 10mi
Dew Point: 36°   Wind: 17mph
Humidity: 79%   Direction: 160°SSE
Pressure: 29.98"   Gusts: 26mph
Location:  41.1353°N, 118.186°W
Report Text: KWMC 220456Z AUTO 16015G23KT 10SM FEW042 BKN060 OVC080 06/02 A2998 RMK AO2 RAE50 SLP154 P0000 T00560022
Loading
Personal Weather Stations






























Interactive Weather Map New forecast layout! Learn more

10-Day Weather Forecast

Advertisements
Track Severe Weather on mobile